sensor_id;sensor_type;location;lat;lon;timestamp;pressure;altitude;pressure_sealevel;temperature;humidity
43115;BME280;28727;50.068;14.452;2023-02-28T00:00:42;100447.75;;;0.69;60.64
43115;BME280;28727;50.068;14.452;2023-02-28T00:03:15;100445.47;;;0.63;60.90
43115;BME280;28727;50.068;14.452;2023-02-28T00:05:47;100445.72;;;0.58;61.27
43115;BME280;28727;50.068;14.452;2023-02-28T00:08:19;100444.56;;;0.64;61.22
43115;BME280;28727;50.068;14.452;2023-02-28T00:10:51;100438.34;;;0.66;61.22
43115;BME280;28727;50.068;14.452;2023-02-28T00:13:22;100437.28;;;0.70;60.74
43115;BME280;28727;50.068;14.452;2023-02-28T00:16:06;100440.69;;;0.71;61.13
43115;BME280;28727;50.068;14.452;2023-02-28T00:18:39;100438.03;;;0.72;61.07
43115;BME280;28727;50.068;14.452;2023-02-28T00:21:10;100439.69;;;0.73;61.11
43115;BME280;28727;50.068;14.452;2023-02-28T00:23:42;100437.88;;;0.75;61.28
43115;BME280;28727;50.068;14.452;2023-02-28T00:26:15;100437.69;;;0.78;61.10
43115;BME280;28727;50.068;14.452;2023-02-28T00:28:53;100444.66;;;0.78;61.32
43115;BME280;28727;50.068;14.452;2023-02-28T00:31:26;100439.56;;;0.76;61.37
43115;BME280;28727;50.068;14.452;2023-02-28T00:33:59;100439.56;;;0.76;61.46
43115;BME280;28727;50.068;14.452;2023-02-28T00:36:31;100438.19;;;0.69;61.13
43115;BME280;28727;50.068;14.452;2023-02-28T00:39:03;100439.69;;;0.73;61.50
43115;BME280;28727;50.068;14.452;2023-02-28T00:41:34;100448.09;;;0.78;61.38
43115;BME280;28727;50.068;14.452;2023-02-28T00:44:06;100440.81;;;0.85;61.31
43115;BME280;28727;50.068;14.452;2023-02-28T00:46:39;100442.59;;;0.85;61.15
43115;BME280;28727;50.068;14.452;2023-02-28T00:49:11;100445.19;;;0.85;61.44
43115;BME280;28727;50.068;14.452;2023-02-28T00:51:49;100438.88;;;0.89;61.25
43115;BME280;28727;50.068;14.452;2023-02-28T00:54:24;100443.03;;;0.93;61.46
43115;BME280;28727;50.068;14.452;2023-02-28T00:56:56;100441.88;;;0.98;61.21
43115;BME280;28727;50.068;14.452;2023-02-28T00:59:34;100443.03;;;0.93;60.76
43115;BME280;28727;50.068;14.452;2023-02-28T01:02:10;100439.31;;;0.81;60.89
43115;BME280;28727;50.068;14.452;2023-02-28T01:04:44;100439.31;;;0.81;60.87
43115;BME280;28727;50.068;14.452;2023-02-28T01:07:15;100442.31;;;0.73;61.29
43115;BME280;28727;50.068;14.452;2023-02-28T01:09:47;100437.19;;;0.72;61.40
43115;BME280;28727;50.068;14.452;2023-02-28T01:12:20;100435.41;;;0.72;61.33
43115;BME280;28727;50.068;14.452;2023-02-28T01:14:52;100435.34;;;0.74;61.36
43115;BME280;28727;50.068;14.452;2023-02-28T01:17:25;100438.78;;;0.74;61.10
43115;BME280;28727;50.068;14.452;2023-02-28T01:19:57;100435.28;;;0.75;61.35
43115;BME280;28727;50.068;14.452;2023-02-28T01:22:31;100427.78;;;0.69;61.67
43115;BME280;28727;50.068;14.452;2023-02-28T01:25:14;100432.69;;;0.75;61.43
43115;BME280;28727;50.068;14.452;2023-02-28T01:27:46;100434.38;;;0.76;61.34
43115;BME280;28727;50.068;14.452;2023-02-28T01:30:18;100431.84;;;0.75;61.27
43115;BME280;28727;50.068;14.452;2023-02-28T01:32:51;100436.44;;;0.70;61.56
43115;BME280;28727;50.068;14.452;2023-02-28T01:35:24;100438.09;;;0.71;61.66
43115;BME280;28727;50.068;14.452;2023-02-28T01:37:59;100433.66;;;0.73;61.56
43115;BME280;28727;50.068;14.452;2023-02-28T01:40:54;100429.31;;;0.73;61.71
43115;BME280;28727;50.068;14.452;2023-02-28T01:46:19;100433.25;;;0.65;61.85
43115;BME280;28727;50.068;14.452;2023-02-28T01:49:04;100429.94;;;0.61;61.79
43115;BME280;28727;50.068;14.452;2023-02-28T01:51:53;100421.22;;;0.62;61.57
43115;BME280;28727;50.068;14.452;2023-02-28T01:54:32;100423.38;;;0.54;62.18
43115;BME280;28727;50.068;14.452;2023-02-28T01:57:14;100413.69;;;0.58;61.97
43115;BME280;28727;50.068;14.452;2023-02-28T02:02:30;100417.84;;;0.60;61.50
43115;BME280;28727;50.068;14.452;2023-02-28T02:05:07;100411.22;;;0.55;61.33
43115;BME280;28727;50.068;14.452;2023-02-28T02:07:41;100410.31;;;0.56;61.54
43115;BME280;28727;50.068;14.452;2023-02-28T02:10:27;100412.22;;;0.52;61.46
43115;BME280;28727;50.068;14.452;2023-02-28T02:31:08;100410.34;;;0.21;61.45
43115;BME280;28727;50.068;14.452;2023-02-28T02:36:38;100409.50;;;0.21;60.64
43115;BME280;28727;50.068;14.452;2023-02-28T02:39:43;100414.25;;;0.13;61.37
43115;BME280;28727;50.068;14.452;2023-02-28T02:42:50;100415.94;;;0.14;61.06
43115;BME280;28727;50.068;14.452;2023-02-28T02:45:25;100417.78;;;0.12;61.13
43115;BME280;28727;50.068;14.452;2023-02-28T02:48:09;100411.88;;;0.08;61.20
43115;BME280;28727;50.068;14.452;2023-02-28T02:51:03;100413.81;;;0.05;61.11
43115;BME280;28727;50.068;14.452;2023-02-28T02:54:08;100414.72;;;0.04;61.14
43115;BME280;28727;50.068;14.452;2023-02-28T02:57:04;100413.31;;;0.14;60.54
43115;BME280;28727;50.068;14.452;2023-02-28T02:59:39;100415.69;;;0.01;61.02
43115;BME280;28727;50.068;14.452;2023-02-28T03:02:14;100423.72;;;-0.04;60.92
43115;BME280;28727;50.068;14.452;2023-02-28T03:04:54;100415.25;;;-0.07;61.26
43115;BME280;28727;50.068;14.452;2023-02-28T03:07:35;100416.94;;;-0.06;60.71
43115;BME280;28727;50.068;14.452;2023-02-28T03:27:33;100416.69;;;-0.19;61.07
43115;BME280;28727;50.068;14.452;2023-02-28T03:30:28;100424.59;;;-0.22;60.89
43115;BME280;28727;50.068;14.452;2023-02-28T03:33:11;100426.88;;;-0.33;61.43
43115;BME280;28727;50.068;14.452;2023-02-28T03:36:05;100430.56;;;-0.37;61.51
43115;BME280;28727;50.068;14.452;2023-02-28T03:38:47;100431.47;;;-0.38;61.34
43115;BME280;28727;50.068;14.452;2023-02-28T03:41:36;100429.28;;;-0.47;61.61
43115;BME280;28727;50.068;14.452;2023-02-28T03:44:17;100427.97;;;-0.56;61.71
43115;BME280;28727;50.068;14.452;2023-02-28T03:46:56;100422.78;;;-0.56;62.11
43115;BME280;28727;50.068;14.452;2023-02-28T03:52:36;100422.19;;;-0.61;61.99
43115;BME280;28727;50.068;14.452;2023-02-28T03:55:13;100425.69;;;-0.62;62.11
43115;BME280;28727;50.068;14.452;2023-02-28T04:00:40;100421.47;;;-0.64;62.12
43115;BME280;28727;50.068;14.452;2023-02-28T04:03:15;100430.19;;;-0.65;62.32
43115;BME280;28727;50.068;14.452;2023-02-28T04:05:51;100434.31;;;-0.61;62.17
43115;BME280;28727;50.068;14.452;2023-02-28T04:08:23;100424.28;;;-0.69;62.03
43115;BME280;28727;50.068;14.452;2023-02-28T04:11:13;100438.31;;;-0.73;62.25
43115;BME280;28727;50.068;14.452;2023-02-28T04:13:52;100436.63;;;-0.74;62.62
43115;BME280;28727;50.068;14.452;2023-02-28T04:16:26;100431.66;;;-0.78;62.43
43115;BME280;28727;50.068;14.452;2023-02-28T04:19:07;100428.50;;;-0.85;62.84
43115;BME280;28727;50.068;14.452;2023-02-28T04:21:44;100444.13;;;-0.87;63.10
43115;BME280;28727;50.068;14.452;2023-02-28T04:24:19;100433.69;;;-0.85;63.09
43115;BME280;28727;50.068;14.452;2023-02-28T04:26:58;100431.94;;;-0.85;63.21
43115;BME280;28727;50.068;14.452;2023-02-28T04:29:31;100437.81;;;-0.81;62.86
43115;BME280;28727;50.068;14.452;2023-02-28T04:32:16;100441.13;;;-0.77;62.65
43115;BME280;28727;50.068;14.452;2023-02-28T04:34:49;100438.31;;;-0.73;62.61
43115;BME280;28727;50.068;14.452;2023-02-28T04:37:27;100431.50;;;-0.75;62.55
43115;BME280;28727;50.068;14.452;2023-02-28T04:40:03;100442.78;;;-0.76;62.51
43115;BME280;28727;50.068;14.452;2023-02-28T04:42:35;100437.59;;;-0.76;62.47
43115;BME280;28727;50.068;14.452;2023-02-28T04:45:09;100443.84;;;-0.80;62.54
43115;BME280;28727;50.068;14.452;2023-02-28T04:47:42;100440.19;;;-0.76;62.48
43115;BME280;28727;50.068;14.452;2023-02-28T04:50:14;100446.09;;;-0.92;62.34
43115;BME280;28727;50.068;14.452;2023-02-28T04:52:49;100441.50;;;-1.05;62.78
43115;BME280;28727;50.068;14.452;2023-02-28T04:55:21;100444.03;;;-1.04;63.04
43115;BME280;28727;50.068;14.452;2023-02-28T04:57:54;100444.38;;;-1.11;63.14
43115;BME280;28727;50.068;14.452;2023-02-28T05:00:26;100451.25;;;-1.10;62.96
43115;BME280;28727;50.068;14.452;2023-02-28T05:02:58;100456.44;;;-1.10;62.96
43115;BME280;28727;50.068;14.452;2023-02-28T05:05:33;100456.44;;;-1.10;63.27
43115;BME280;28727;50.068;14.452;2023-02-28T05:08:04;100457.34;;;-1.11;62.95
43115;BME280;28727;50.068;14.452;2023-02-28T05:10:36;100462.78;;;-1.17;62.80
43115;BME280;28727;50.068;14.452;2023-02-28T05:13:20;100453.53;;;-1.23;63.10
43115;BME280;28727;50.068;14.452;2023-02-28T05:15:53;100455.22;;;-1.22;63.36
43115;BME280;28727;50.068;14.452;2023-02-28T05:18:25;100458.66;;;-1.21;63.40
43115;BME280;28727;50.068;14.452;2023-02-28T05:20:57;100462.78;;;-1.17;63.31
43115;BME280;28727;50.068;14.452;2023-02-28T05:23:29;100450.94;;;-1.23;63.34
43115;BME280;28727;50.068;14.452;2023-02-28T05:26:04;100464.00;;;-1.25;62.94
43115;BME280;28727;50.068;14.452;2023-02-28T05:28:35;100466.44;;;-1.21;62.96
43115;BME280;28727;50.068;14.452;2023-02-28T05:31:18;100461.66;;;-1.31;63.08
43115;BME280;28727;50.068;14.452;2023-02-28T05:34:03;100460.94;;;-1.34;63.27
43115;BME280;28727;50.068;14.452;2023-02-28T05:36:41;100466.75;;;-1.29;63.10
43115;BME280;28727;50.068;14.452;2023-02-28T05:39:13;100475.31;;;-1.27;63.31
43115;BME280;28727;50.068;14.452;2023-02-28T05:41:45;100473.56;;;-1.27;62.97
43115;BME280;28727;50.068;14.452;2023-02-28T05:44:16;100474.34;;;-1.25;62.94
43115;BME280;28727;50.068;14.452;2023-02-28T05:46:48;100476.00;;;-1.24;63.02
43115;BME280;28727;50.068;14.452;2023-02-28T05:49:20;100484.16;;;-1.31;62.81
43115;BME280;28727;50.068;14.452;2023-02-28T05:51:54;100487.69;;;-1.34;62.84
43115;BME280;28727;50.068;14.452;2023-02-28T05:54:26;100489.38;;;-1.33;63.09
43115;BME280;28727;50.068;14.452;2023-02-28T05:56:58;100487.75;;;-1.35;62.68
43115;BME280;28727;50.068;14.452;2023-02-28T05:59:29;100489.38;;;-1.33;63.05
43115;BME280;28727;50.068;14.452;2023-02-28T06:02:03;100491.00;;;-1.30;62.70
43115;BME280;28727;50.068;14.452;2023-02-28T06:04:34;100495.34;;;-1.31;62.44
43115;BME280;28727;50.068;14.452;2023-02-28T06:07:11;100497.75;;;-1.46;62.79
43115;BME280;28727;50.068;14.452;2023-02-28T06:09:43;100494.31;;;-1.47;63.10
43115;BME280;28727;50.068;14.452;2023-02-28T06:12:14;100506.09;;;-1.40;62.87
43115;BME280;28727;50.068;14.452;2023-02-28T06:14:46;100506.38;;;-1.26;63.20
43115;BME280;28727;50.068;14.452;2023-02-28T06:17:18;100504.06;;;-0.74;62.33
43115;BME280;28727;50.068;14.452;2023-02-28T06:19:51;100509.78;;;0.06;61.01
43115;BME280;28727;50.068;14.452;2023-02-28T06:22:22;100501.56;;;1.17;58.95
43115;BME280;28727;50.068;14.452;2023-02-28T06:24:54;100499.50;;;2.32;55.88
43115;BME280;28727;50.068;14.452;2023-02-28T06:27:26;100501.09;;;3.49;52.92
43115;BME280;28727;50.068;14.452;2023-02-28T06:29:58;100503.34;;;4.48;50.76
43115;BME280;28727;50.068;14.452;2023-02-28T06:32:32;100510.44;;;5.60;47.86
43115;BME280;28727;50.068;14.452;2023-02-28T06:35:04;100502.97;;;6.51;43.55
43115;BME280;28727;50.068;14.452;2023-02-28T06:37:36;100518.50;;;7.45;42.82
43115;BME280;28727;50.068;14.452;2023-02-28T06:40:10;100517.06;;;7.74;42.23
43115;BME280;28727;50.068;14.452;2023-02-28T06:42:44;100504.69;;;8.60;40.09
43115;BME280;28727;50.068;14.452;2023-02-28T06:45:16;100505.97;;;9.78;38.31
43115;BME280;28727;50.068;14.452;2023-02-28T06:47:48;100503.41;;;10.84;36.03
43115;BME280;28727;50.068;14.452;2023-02-28T06:50:25;100517.06;;;11.26;34.83
43115;BME280;28727;50.068;14.452;2023-02-28T06:52:59;100518.31;;;11.22;33.60
43115;BME280;28727;50.068;14.452;2023-02-28T06:55:31;100519.50;;;11.46;33.42
43115;BME280;28727;50.068;14.452;2023-02-28T06:58:02;100523.53;;;12.05;32.60
43115;BME280;28727;50.068;14.452;2023-02-28T07:00:51;100525.06;;;12.43;31.21
43115;BME280;28727;50.068;14.452;2023-02-28T07:03:27;100518.84;;;12.35;30.87
43115;BME280;28727;50.068;14.452;2023-02-28T07:05:58;100517.47;;;13.35;30.27
43115;BME280;28727;50.068;14.452;2023-02-28T07:08:30;100518.03;;;13.47;29.48
43115;BME280;28727;50.068;14.452;2023-02-28T07:11:04;100520.75;;;14.05;28.20
43115;BME280;28727;50.068;14.452;2023-02-28T07:13:39;100525.81;;;13.82;28.35
43115;BME280;28727;50.068;14.452;2023-02-28T07:16:13;100515.53;;;14.46;27.61
43115;BME280;28727;50.068;14.452;2023-02-28T07:18:45;100512.66;;;14.31;26.49
43115;BME280;28727;50.068;14.452;2023-02-28T07:21:17;100520.56;;;13.99;25.86
43115;BME280;28727;50.068;14.452;2023-02-28T07:23:59;100524.75;;;13.67;26.65
43115;BME280;28727;50.068;14.452;2023-02-28T07:26:32;100536.03;;;13.09;27.52
43115;BME280;28727;50.068;14.452;2023-02-28T07:29:05;100538.53;;;12.50;28.81
43115;BME280;28727;50.068;14.452;2023-02-28T07:31:40;100535.38;;;13.07;27.37
43115;BME280;28727;50.068;14.452;2023-02-28T07:34:12;100541.41;;;12.39;28.71
43115;BME280;28727;50.068;14.452;2023-02-28T07:36:47;100541.00;;;11.98;29.46
43115;BME280;28727;50.068;14.452;2023-02-28T07:39:25;100535.88;;;11.60;29.69
43115;BME280;28727;50.068;14.452;2023-02-28T07:42:04;100547.38;;;11.68;29.80
43115;BME280;28727;50.068;14.452;2023-02-28T07:44:40;100552.75;;;11.49;30.22
43115;BME280;28727;50.068;14.452;2023-02-28T07:47:12;100544.69;;;10.85;30.78
43115;BME280;28727;50.068;14.452;2023-02-28T07:49:44;100555.28;;;10.17;31.57
43115;BME280;28727;50.068;14.452;2023-02-28T07:52:16;100557.31;;;9.64;32.02
43115;BME280;28727;50.068;14.452;2023-02-28T07:54:48;100556.69;;;9.21;32.95
43115;BME280;28727;50.068;14.452;2023-02-28T07:57:27;100559.16;;;9.13;32.15
43115;BME280;28727;50.068;14.452;2023-02-28T08:00:04;100556.63;;;8.70;34.29
43115;BME280;28727;50.068;14.452;2023-02-28T08:02:44;100561.25;;;8.98;33.47
43115;BME280;28727;50.068;14.452;2023-02-28T08:05:22;100570.72;;;9.00;32.81
43115;BME280;28727;50.068;14.452;2023-02-28T08:07:56;100557.13;;;8.63;33.59
43115;BME280;28727;50.068;14.452;2023-02-28T08:10:28;100562.38;;;8.20;33.50
43115;BME280;28727;50.068;14.452;2023-02-28T08:13:00;100565.69;;;7.79;34.58
43115;BME280;28727;50.068;14.452;2023-02-28T08:15:32;100554.94;;;8.26;34.52
43115;BME280;28727;50.068;14.452;2023-02-28T08:18:28;100557.34;;;7.74;33.97
43115;BME280;28727;50.068;14.452;2023-02-28T08:21:09;100557.47;;;7.39;35.73
43115;BME280;28727;50.068;14.452;2023-02-28T08:23:41;100555.78;;;7.27;35.41
43115;BME280;28727;50.068;14.452;2023-02-28T08:26:13;100560.31;;;6.68;36.62
43115;BME280;28727;50.068;14.452;2023-02-28T08:28:45;100559.88;;;7.54;36.44
43115;BME280;28727;50.068;14.452;2023-02-28T08:31:19;100558.88;;;7.99;35.44
43115;BME280;28727;50.068;14.452;2023-02-28T08:33:51;100555.75;;;8.48;34.42
43115;BME280;28727;50.068;14.452;2023-02-28T08:36:25;100555.91;;;7.81;34.49
43115;BME280;28727;50.068;14.452;2023-02-28T08:38:58;100550.28;;;7.64;34.56
43115;BME280;28727;50.068;14.452;2023-02-28T08:41:31;100543.47;;;7.28;35.20
43115;BME280;28727;50.068;14.452;2023-02-28T08:44:03;100547.91;;;7.27;35.74
43115;BME280;28727;50.068;14.452;2023-02-28T08:46:35;100553.03;;;7.40;35.14
43115;BME280;28727;50.068;14.452;2023-02-28T08:49:31;100553.22;;;7.04;35.11
43115;BME280;28727;50.068;14.452;2023-02-28T08:52:03;100559.00;;;6.74;35.86
43115;BME280;28727;50.068;14.452;2023-02-28T08:54:35;100565.38;;;6.24;36.46
43115;BME280;28727;50.068;14.452;2023-02-28T08:57:07;100551.16;;;6.02;36.88
43115;BME280;28727;50.068;14.452;2023-02-28T08:59:39;100566.75;;;5.67;37.18
43115;BME280;28727;50.068;14.452;2023-02-28T09:02:18;100570.72;;;5.73;37.22
43115;BME280;28727;50.068;14.452;2023-02-28T09:04:53;100554.91;;;6.11;36.92
43115;BME280;28727;50.068;14.452;2023-02-28T09:07:28;100554.84;;;6.00;37.15
43115;BME280;28727;50.068;14.452;2023-02-28T09:10:04;100552.66;;;6.30;36.35
43115;BME280;28727;50.068;14.452;2023-02-28T09:12:36;100559.63;;;6.77;36.38
43115;BME280;28727;50.068;14.452;2023-02-28T09:15:09;100552.78;;;6.64;34.95
43115;BME280;28727;50.068;14.452;2023-02-28T09:17:41;100549.88;;;6.55;36.19
43115;BME280;28727;50.068;14.452;2023-02-28T09:20:16;100540.09;;;6.92;35.30
43115;BME280;28727;50.068;14.452;2023-02-28T09:22:48;100535.97;;;7.34;34.42
43115;BME280;28727;50.068;14.452;2023-02-28T09:25:20;100553.44;;;6.89;34.36
43115;BME280;28727;50.068;14.452;2023-02-28T09:27:55;100538.47;;;6.68;35.69
43115;BME280;28727;50.068;14.452;2023-02-28T09:30:29;100547.94;;;6.46;35.11
43115;BME280;28727;50.068;14.452;2023-02-28T09:33:03;100543.69;;;6.09;35.82
43115;BME280;28727;50.068;14.452;2023-02-28T09:35:38;100557.72;;;6.21;35.46
43115;BME280;28727;50.068;14.452;2023-02-28T09:38:10;100535.63;;;6.12;35.89
43115;BME280;28727;50.068;14.452;2023-02-28T09:41:11;100545.91;;;6.50;36.00
43115;BME280;28727;50.068;14.452;2023-02-28T09:43:56;100560.78;;;6.73;35.06
43115;BME280;28727;50.068;14.452;2023-02-28T09:46:40;100545.38;;;6.69;35.96
43115;BME280;28727;50.068;14.452;2023-02-28T09:49:23;100548.31;;;6.88;34.69
43115;BME280;28727;50.068;14.452;2023-02-28T09:52:07;100561.16;;;6.69;35.12
43115;BME280;28727;50.068;14.452;2023-02-28T09:54:41;100559.50;;;6.44;35.83
43115;BME280;28727;50.068;14.452;2023-02-28T10:00:10;100542.25;;;6.29;36.58
43115;BME280;28727;50.068;14.452;2023-02-28T10:03:25;100539.78;;;6.73;35.91
43115;BME280;28727;50.068;14.452;2023-02-28T10:06:08;100539.75;;;7.19;35.60
43115;BME280;28727;50.068;14.452;2023-02-28T10:09:06;100540.38;;;7.34;35.10
43115;BME280;28727;50.068;14.452;2023-02-28T10:11:46;100539.28;;;7.36;34.38
43115;BME280;28727;50.068;14.452;2023-02-28T10:14:25;100545.97;;;7.74;34.17
43115;BME280;28727;50.068;14.452;2023-02-28T10:17:45;100550.03;;;7.89;34.39
43115;BME280;28727;50.068;14.452;2023-02-28T10:20:01;100553.84;;;7.85;33.46
43115;BME280;28727;50.068;14.452;2023-02-28T10:25:39;100549.66;;;7.05;34.87
43115;BME280;28727;50.068;14.452;2023-02-28T10:28:13;100541.78;;;7.16;35.66
43115;BME280;28727;50.068;14.452;2023-02-28T10:30:55;100540.47;;;7.66;34.72
43115;BME280;28727;50.068;14.452;2023-02-28T10:33:34;100549.75;;;8.03;34.27
43115;BME280;28727;50.068;14.452;2023-02-28T10:36:13;100538.97;;;8.17;34.27
43115;BME280;28727;50.068;14.452;2023-02-28T10:38:47;100532.16;;;8.15;33.72
43115;BME280;28727;50.068;14.452;2023-02-28T10:41:32;100535.41;;;8.50;33.20
43115;BME280;28727;50.068;14.452;2023-02-28T10:44:21;100544.69;;;8.22;33.63
43115;BME280;28727;50.068;14.452;2023-02-28T10:46:55;100528.75;;;7.81;33.83
43115;BME280;28727;50.068;14.452;2023-02-28T10:49:28;100533.75;;;8.06;34.32
43115;BME280;28727;50.068;14.452;2023-02-28T10:52:01;100534.66;;;8.16;34.38
43115;BME280;28727;50.068;14.452;2023-02-28T10:54:36;100528.50;;;8.27;34.19
43115;BME280;28727;50.068;14.452;2023-02-28T10:57:23;100523.13;;;8.40;33.83
43115;BME280;28727;50.068;14.452;2023-02-28T11:00:26;100529.91;;;8.53;33.32
43115;BME280;28727;50.068;14.452;2023-02-28T11:03:33;100529.59;;;7.81;34.42
43115;BME280;28727;50.068;14.452;2023-02-28T11:06:07;100528.16;;;7.66;34.31
43115;BME280;28727;50.068;14.452;2023-02-28T11:11:23;100531.09;;;7.95;34.01
43115;BME280;28727;50.068;14.452;2023-02-28T11:14:04;100531.06;;;8.17;33.49
43115;BME280;28727;50.068;14.452;2023-02-28T11:17:29;100528.00;;;7.90;33.42
43115;BME280;28727;50.068;14.452;2023-02-28T11:20:05;100514.28;;;7.87;34.13
43115;BME280;28727;50.068;14.452;2023-02-28T11:22:44;100518.97;;;7.61;34.23
43115;BME280;28727;50.068;14.452;2023-02-28T11:25:23;100515.03;;;7.11;35.12
43115;BME280;28727;50.068;14.452;2023-02-28T11:28:03;100508.09;;;7.10;35.06
43115;BME280;28727;50.068;14.452;2023-02-28T11:30:46;100505.84;;;7.27;34.98
43115;BME280;28727;50.068;14.452;2023-02-28T11:33:49;100520.78;;;7.49;34.72
43115;BME280;28727;50.068;14.452;2023-02-28T11:36:28;100512.88;;;7.60;35.07
43115;BME280;28727;50.068;14.452;2023-02-28T11:39:12;100509.63;;;8.22;34.16
43115;BME280;28727;50.068;14.452;2023-02-28T11:48:20;100492.81;;;7.59;34.82
43115;BME280;28727;50.068;14.452;2023-02-28T11:56:58;100489.44;;;6.90;35.90
43115;BME280;28727;50.068;14.452;2023-02-28T12:06:15;100474.28;;;7.61;34.73
43115;BME280;28727;50.068;14.452;2023-02-28T12:09:04;100478.72;;;8.03;34.84
43115;BME280;28727;50.068;14.452;2023-02-28T12:15:32;100474.56;;;7.90;34.91
43115;BME280;28727;50.068;14.452;2023-02-28T12:21:07;100467.91;;;7.74;34.97
43115;BME280;28727;50.068;14.452;2023-02-28T12:26:46;100462.84;;;7.94;34.04
43115;BME280;28727;50.068;14.452;2023-02-28T12:29:28;100455.81;;;8.15;33.76
43115;BME280;28727;50.068;14.452;2023-02-28T12:32:08;100448.38;;;8.20;34.48
43115;BME280;28727;50.068;14.452;2023-02-28T12:34:46;100452.16;;;8.38;33.35
43115;BME280;28727;50.068;14.452;2023-02-28T12:37:30;100459.50;;;7.92;34.39
43115;BME280;28727;50.068;14.452;2023-02-28T12:40:07;100452.75;;;7.67;35.20
43115;BME280;28727;50.068;14.452;2023-02-28T12:42:48;100458.00;;;7.67;34.80
43115;BME280;28727;50.068;14.452;2023-02-28T12:47:58;100454.50;;;7.89;34.11
43115;BME280;28727;50.068;14.452;2023-02-28T12:50:35;100457.78;;;7.70;34.09
43115;BME280;28727;50.068;14.452;2023-02-28T12:53:17;100463.63;;;7.62;35.10
43115;BME280;28727;50.068;14.452;2023-02-28T12:59:02;100453.38;;;7.59;35.34
43115;BME280;28727;50.068;14.452;2023-02-28T13:02:00;100455.53;;;7.43;34.45
43115;BME280;28727;50.068;14.452;2023-02-28T13:05:04;100444.56;;;7.16;35.79
43115;BME280;28727;50.068;14.452;2023-02-28T13:10:53;100443.91;;;7.68;35.29
43115;BME280;28727;50.068;14.452;2023-02-28T13:13:37;100441.88;;;7.71;35.30
43115;BME280;28727;50.068;14.452;2023-02-28T13:16:09;100434.00;;;7.71;34.58
43115;BME280;28727;50.068;14.452;2023-02-28T13:18:46;100429.41;;;7.73;35.25
43115;BME280;28727;50.068;14.452;2023-02-28T13:21:27;100429.59;;;7.50;35.15
43115;BME280;28727;50.068;14.452;2023-02-28T13:24:08;100437.59;;;7.48;35.97
43115;BME280;28727;50.068;14.452;2023-02-28T13:29:39;100437.75;;;7.02;35.18
43115;BME280;28727;50.068;14.452;2023-02-28T13:32:29;100444.44;;;6.84;35.93
43115;BME280;28727;50.068;14.452;2023-02-28T13:37:42;100429.22;;;6.54;36.04
43115;BME280;28727;50.068;14.452;2023-02-28T13:40:34;100426.59;;;6.54;36.46
43115;BME280;28727;50.068;14.452;2023-02-28T13:43:09;100430.34;;;6.74;36.74
43115;BME280;28727;50.068;14.452;2023-02-28T13:46:19;100425.66;;;6.55;36.41
43115;BME280;28727;50.068;14.452;2023-02-28T13:48:52;100431.81;;;6.32;36.70
43115;BME280;28727;50.068;14.452;2023-02-28T13:51:52;100424.88;;;6.31;36.85
43115;BME280;28727;50.068;14.452;2023-02-28T13:57:57;100420.69;;;6.17;37.39
43115;BME280;28727;50.068;14.452;2023-02-28T14:06:32;100418.31;;;6.25;37.95
43115;BME280;28727;50.068;14.452;2023-02-28T14:20:47;100414.09;;;6.46;37.41
43115;BME280;28727;50.068;14.452;2023-02-28T14:32:02;100406.44;;;5.97;38.01
43115;BME280;28727;50.068;14.452;2023-02-28T14:35:02;100396.03;;;5.96;37.93
43115;BME280;28727;50.068;14.452;2023-02-28T14:37:33;100400.19;;;5.87;38.13
43115;BME280;28727;50.068;14.452;2023-02-28T14:40:26;100400.13;;;5.76;38.28
43115;BME280;28727;50.068;14.452;2023-02-28T14:43:03;100400.50;;;5.83;38.34
43115;BME280;28727;50.068;14.452;2023-02-28T14:45:35;100398.00;;;5.57;38.49
43115;BME280;28727;50.068;14.452;2023-02-28T14:48:09;100397.38;;;5.54;38.55
43115;BME280;28727;50.068;14.452;2023-02-28T14:50:49;100389.13;;;5.47;39.08
43115;BME280;28727;50.068;14.452;2023-02-28T14:53:25;100391.63;;;5.49;39.54
43115;BME280;28727;50.068;14.452;2023-02-28T14:56:01;100390.75;;;5.61;39.19
43115;BME280;28727;50.068;14.452;2023-02-28T14:58:33;100387.78;;;5.42;39.14
43115;BME280;28727;50.068;14.452;2023-02-28T15:01:05;100389.81;;;5.25;39.34
43115;BME280;28727;50.068;14.452;2023-02-28T15:04:05;100398.13;;;5.07;40.07
43115;BME280;28727;50.068;14.452;2023-02-28T15:06:37;100393.13;;;5.04;40.70
43115;BME280;28727;50.068;14.452;2023-02-28T15:09:16;100395.94;;;5.13;40.14
43115;BME280;28727;50.068;14.452;2023-02-28T15:11:49;100393.94;;;5.17;39.92
43115;BME280;28727;50.068;14.452;2023-02-28T15:14:21;100395.91;;;5.26;40.05
43115;BME280;28727;50.068;14.452;2023-02-28T15:17:01;100399.63;;;5.11;39.95
43115;BME280;28727;50.068;14.452;2023-02-28T15:19:36;100396.16;;;5.10;40.19
43115;BME280;28727;50.068;14.452;2023-02-28T15:22:15;100407.16;;;5.03;40.04
43115;BME280;28727;50.068;14.452;2023-02-28T15:24:51;100403.69;;;5.02;40.20
43115;BME280;28727;50.068;14.452;2023-02-28T15:27:27;100400.03;;;5.05;40.47
43115;BME280;28727;50.068;14.452;2023-02-28T15:30:34;100394.72;;;5.06;40.51
43115;BME280;28727;50.068;14.452;2023-02-28T15:35:44;100394.41;;;4.98;40.50
43115;BME280;28727;50.068;14.452;2023-02-28T15:38:24;100397.75;;;5.00;40.67
43115;BME280;28727;50.068;14.452;2023-02-28T15:40:58;100394.41;;;4.85;41.46
43115;BME280;28727;50.068;14.452;2023-02-28T15:43:36;100391.63;;;4.76;41.45
43115;BME280;28727;50.068;14.452;2023-02-28T15:46:12;100384.06;;;4.71;41.31
43115;BME280;28727;50.068;14.452;2023-02-28T15:48:55;100394.84;;;4.67;41.55
43115;BME280;28727;50.068;14.452;2023-02-28T15:51:38;100387.31;;;4.62;41.76
43115;BME280;28727;50.068;14.452;2023-02-28T15:54:15;100392.97;;;4.56;41.95
43115;BME280;28727;50.068;14.452;2023-02-28T15:56:52;100388.38;;;4.47;42.17